sensor_id;sensor_type;location;lat;lon;timestamp;pressure;altitude;pressure_sealevel;temperature;humidity
53526;BME280;40551;50.478;19.378;2023-02-03T00:02:10;98427.53;;;0.07;85.36
53526;BME280;40551;50.478;19.378;2023-02-03T00:04:42;98431.11;;;0.07;85.27
53526;BME280;40551;50.478;19.378;2023-02-03T00:07:12;98437.25;;;0.07;85.25
53526;BME280;40551;50.478;19.378;2023-02-03T00:09:45;98442.32;;;0.04;85.29
53526;BME280;40551;50.478;19.378;2023-02-03T00:12:22;98439.98;;;0.02;85.09
53526;BME280;40551;50.478;19.378;2023-02-03T00:14:53;98447.53;;;0.01;84.82
53526;BME280;40551;50.478;19.378;2023-02-03T00:17:24;98445.73;;;-0.06;85.07
53526;BME280;40551;50.478;19.378;2023-02-03T00:19:54;98441.27;;;-0.06;84.92
53526;BME280;40551;50.478;19.378;2023-02-03T00:22:26;98436.79;;;-0.08;84.98
53526;BME280;40551;50.478;19.378;2023-02-03T00:24:56;98438.13;;;-0.08;84.83
53526;BME280;40551;50.478;19.378;2023-02-03T00:27:28;98434.39;;;-0.13;84.76
53526;BME280;40551;50.478;19.378;2023-02-03T00:30:01;98435.55;;;-0.12;84.49
53526;BME280;40551;50.478;19.378;2023-02-03T00:32:32;98437.59;;;-0.12;84.58
53526;BME280;40551;50.478;19.378;2023-02-03T00:35:05;98443.52;;;-0.11;84.31
53526;BME280;40551;50.478;19.378;2023-02-03T00:37:38;98445.19;;;-0.10;84.42
53526;BME280;40551;50.478;19.378;2023-02-03T00:40:09;98446.69;;;-0.09;84.18
53526;BME280;40551;50.478;19.378;2023-02-03T00:42:43;98448.23;;;-0.14;84.16
53526;BME280;40551;50.478;19.378;2023-02-03T00:45:16;98449.20;;;-0.12;84.13
53526;BME280;40551;50.478;19.378;2023-02-03T00:47:48;98457.66;;;-0.11;84.01
53526;BME280;40551;50.478;19.378;2023-02-03T00:50:20;98459.82;;;-0.09;83.96
53526;BME280;40551;50.478;19.378;2023-02-03T00:52:52;98462.33;;;-0.08;83.78
53526;BME280;40551;50.478;19.378;2023-02-03T00:55:22;98458.73;;;-0.07;83.84
53526;BME280;40551;50.478;19.378;2023-02-03T00:57:54;98462.93;;;-0.10;83.80
53526;BME280;40551;50.478;19.378;2023-02-03T01:00:24;98461.31;;;-0.08;83.79
53526;BME280;40551;50.478;19.378;2023-02-03T01:02:56;98459.90;;;-0.11;83.65
53526;BME280;40551;50.478;19.378;2023-02-03T01:05:28;98457.65;;;-0.15;83.51
53526;BME280;40551;50.478;19.378;2023-02-03T01:08:00;98454.33;;;-0.13;83.50
53526;BME280;40551;50.478;19.378;2023-02-03T01:10:32;98456.52;;;-0.12;83.27
53526;BME280;40551;50.478;19.378;2023-02-03T01:13:02;98459.52;;;-0.10;83.17
53526;BME280;40551;50.478;19.378;2023-02-03T01:15:34;98461.69;;;-0.14;83.20
53526;BME280;40551;50.478;19.378;2023-02-03T01:18:09;98454.77;;;-0.11;83.23
53526;BME280;40551;50.478;19.378;2023-02-03T01:20:39;98453.86;;;-0.09;83.02
53526;BME280;40551;50.478;19.378;2023-02-03T01:23:11;98444.08;;;-0.12;83.25
53526;BME280;40551;50.478;19.378;2023-02-03T01:25:42;98442.31;;;-0.10;83.05
53526;BME280;40551;50.478;19.378;2023-02-03T01:28:14;98439.56;;;-0.10;82.95
53526;BME280;40551;50.478;19.378;2023-02-03T01:30:47;98439.21;;;-0.10;82.92
53526;BME280;40551;50.478;19.378;2023-02-03T01:33:19;98441.09;;;-0.09;83.04
53526;BME280;40551;50.478;19.378;2023-02-03T01:35:51;98438.48;;;-0.08;82.89
53526;BME280;40551;50.478;19.378;2023-02-03T01:38:21;98441.39;;;-0.09;82.77
53526;BME280;40551;50.478;19.378;2023-02-03T01:40:53;98437.87;;;-0.15;82.82
53526;BME280;40551;50.478;19.378;2023-02-03T01:43:31;98432.58;;;-0.14;82.90
53526;BME280;40551;50.478;19.378;2023-02-03T01:46:06;98429.48;;;-0.19;83.10
53526;BME280;40551;50.478;19.378;2023-02-03T01:48:46;98430.48;;;-0.18;82.92
53526;BME280;40551;50.478;19.378;2023-02-03T01:51:20;98430.12;;;-0.18;82.99
53526;BME280;40551;50.478;19.378;2023-02-03T01:53:53;98425.48;;;-0.17;83.17
53526;BME280;40551;50.478;19.378;2023-02-03T01:56:29;98421.86;;;-0.16;83.27
53526;BME280;40551;50.478;19.378;2023-02-03T01:59:04;98418.60;;;-0.15;83.27
53526;BME280;40551;50.478;19.378;2023-02-03T02:01:36;98419.26;;;-0.14;83.20
53526;BME280;40551;50.478;19.378;2023-02-03T02:04:08;98419.19;;;-0.12;83.40
53526;BME280;40551;50.478;19.378;2023-02-03T02:06:40;98415.79;;;-0.13;83.25
53526;BME280;40551;50.478;19.378;2023-02-03T02:09:18;98414.92;;;-0.12;83.27
53526;BME280;40551;50.478;19.378;2023-02-03T02:11:50;98420.10;;;-0.14;83.16
53526;BME280;40551;50.478;19.378;2023-02-03T02:14:20;98419.92;;;-0.18;83.04
53526;BME280;40551;50.478;19.378;2023-02-03T02:16:56;98420.84;;;-0.26;83.18
53526;BME280;40551;50.478;19.378;2023-02-03T02:19:56;98419.91;;;-0.28;82.90
53526;BME280;40551;50.478;19.378;2023-02-03T02:22:35;98415.77;;;-0.32;82.97
53526;BME280;40551;50.478;19.378;2023-02-03T02:25:23;98415.69;;;-0.34;83.04
53526;BME280;40551;50.478;19.378;2023-02-03T02:34:00;98422.29;;;-0.37;82.99
53526;BME280;40551;50.478;19.378;2023-02-03T02:36:42;98412.80;;;-0.39;82.84
53526;BME280;40551;50.478;19.378;2023-02-03T02:39:22;98410.11;;;-0.40;82.81
53526;BME280;40551;50.478;19.378;2023-02-03T02:41:59;98406.73;;;-0.41;82.88
53526;BME280;40551;50.478;19.378;2023-02-03T02:44:34;98400.72;;;-0.49;82.79
53526;BME280;40551;50.478;19.378;2023-02-03T02:47:12;98393.74;;;-0.50;82.83
53526;BME280;40551;50.478;19.378;2023-02-03T02:49:49;98393.23;;;-0.49;82.95
53526;BME280;40551;50.478;19.378;2023-02-03T02:52:25;98387.76;;;-0.49;82.88
53526;BME280;40551;50.478;19.378;2023-02-03T02:55:04;98377.87;;;-0.49;82.78
53526;BME280;40551;50.478;19.378;2023-02-03T02:57:39;98372.80;;;-0.50;82.77
53526;BME280;40551;50.478;19.378;2023-02-03T03:00:13;98369.57;;;-0.50;82.80
53526;BME280;40551;50.478;19.378;2023-02-03T03:02:45;98367.81;;;-0.49;82.78
53526;BME280;40551;50.478;19.378;2023-02-03T03:05:18;98367.30;;;-0.49;82.62
53526;BME280;40551;50.478;19.378;2023-02-03T03:07:57;98369.08;;;-0.51;82.33
53526;BME280;40551;50.478;19.378;2023-02-03T03:10:32;98370.55;;;-0.54;82.21
53526;BME280;40551;50.478;19.378;2023-02-03T03:13:08;98379.46;;;-0.55;82.21
53526;BME280;40551;50.478;19.378;2023-02-03T03:15:44;98388.14;;;-0.55;82.37
53526;BME280;40551;50.478;19.378;2023-02-03T03:18:22;98396.69;;;-0.56;82.51
53526;BME280;40551;50.478;19.378;2023-02-03T03:20:58;98405.04;;;-0.56;82.29
53526;BME280;40551;50.478;19.378;2023-02-03T03:23:37;98411.15;;;-0.55;82.40
53526;BME280;40551;50.478;19.378;2023-02-03T03:26:13;98411.84;;;-0.56;82.16
53526;BME280;40551;50.478;19.378;2023-02-03T03:28:48;98416.30;;;-0.56;82.10
53526;BME280;40551;50.478;19.378;2023-02-03T03:31:24;98410.61;;;-0.60;81.89
53526;BME280;40551;50.478;19.378;2023-02-03T03:33:56;98402.06;;;-0.59;82.12
53526;BME280;40551;50.478;19.378;2023-02-03T03:36:27;98399.30;;;-0.58;82.17
53526;BME280;40551;50.478;19.378;2023-02-03T03:39:04;98396.08;;;-0.63;81.85
53526;BME280;40551;50.478;19.378;2023-02-03T03:41:42;98381.80;;;-0.64;81.74
53526;BME280;40551;50.478;19.378;2023-02-03T03:44:19;98374.33;;;-0.64;81.74
53526;BME280;40551;50.478;19.378;2023-02-03T03:46:58;98371.42;;;-0.64;81.76
53526;BME280;40551;50.478;19.378;2023-02-03T03:49:34;98367.47;;;-0.63;81.70
53526;BME280;40551;50.478;19.378;2023-02-03T03:52:07;98367.94;;;-0.62;81.56
53526;BME280;40551;50.478;19.378;2023-02-03T03:54:42;98365.39;;;-0.62;81.58
53526;BME280;40551;50.478;19.378;2023-02-03T03:57:19;98361.19;;;-0.64;81.27
53526;BME280;40551;50.478;19.378;2023-02-03T03:59:52;98355.56;;;-0.64;81.26
53526;BME280;40551;50.478;19.378;2023-02-03T04:02:25;98354.92;;;-0.65;81.21
53526;BME280;40551;50.478;19.378;2023-02-03T04:04:59;98355.00;;;-0.67;81.04
53526;BME280;40551;50.478;19.378;2023-02-03T04:07:39;98355.41;;;-0.70;80.98
53526;BME280;40551;50.478;19.378;2023-02-03T04:10:17;98356.32;;;-0.71;81.20
53526;BME280;40551;50.478;19.378;2023-02-03T04:12:50;98361.68;;;-0.74;80.81
53526;BME280;40551;50.478;19.378;2023-02-03T04:15:21;98360.80;;;-0.78;80.81
53526;BME280;40551;50.478;19.378;2023-02-03T04:17:52;98356.77;;;-0.84;80.89
53526;BME280;40551;50.478;19.378;2023-02-03T04:20:26;98353.92;;;-0.85;80.84
53526;BME280;40551;50.478;19.378;2023-02-03T04:22:59;98354.50;;;-0.88;80.95
53526;BME280;40551;50.478;19.378;2023-02-03T04:25:31;98352.52;;;-0.89;80.91
53526;BME280;40551;50.478;19.378;2023-02-03T04:28:01;98348.30;;;-0.91;80.78
53526;BME280;40551;50.478;19.378;2023-02-03T04:30:33;98344.98;;;-0.98;80.81
53526;BME280;40551;50.478;19.378;2023-02-03T04:33:05;98338.77;;;-1.00;80.74
53526;BME280;40551;50.478;19.378;2023-02-03T04:35:35;98336.63;;;-1.03;80.62
53526;BME280;40551;50.478;19.378;2023-02-03T04:38:07;98334.14;;;-1.10;80.76
53526;BME280;40551;50.478;19.378;2023-02-03T04:40:37;98331.91;;;-1.10;80.79
53526;BME280;40551;50.478;19.378;2023-02-03T04:43:09;98331.84;;;-1.13;80.76
53526;BME280;40551;50.478;19.378;2023-02-03T04:45:40;98331.50;;;-1.13;80.63
53526;BME280;40551;50.478;19.378;2023-02-03T04:48:10;98326.73;;;-1.13;80.46
53526;BME280;40551;50.478;19.378;2023-02-03T04:50:42;98326.72;;;-1.17;80.57
53526;BME280;40551;50.478;19.378;2023-02-03T04:53:12;98322.25;;;-1.16;80.41
53526;BME280;40551;50.478;19.378;2023-02-03T04:55:48;98315.94;;;-1.21;80.51
53526;BME280;40551;50.478;19.378;2023-02-03T04:58:19;98312.06;;;-1.22;80.39
53526;BME280;40551;50.478;19.378;2023-02-03T05:00:50;98307.80;;;-1.22;80.39
53526;BME280;40551;50.478;19.378;2023-02-03T05:03:21;98299.63;;;-1.27;80.36
53526;BME280;40551;50.478;19.378;2023-02-03T05:05:58;98294.00;;;-1.26;80.41
53526;BME280;40551;50.478;19.378;2023-02-03T05:08:30;98295.20;;;-1.26;80.38
53526;BME280;40551;50.478;19.378;2023-02-03T05:11:02;98295.00;;;-1.25;80.37
53526;BME280;40551;50.478;19.378;2023-02-03T05:13:36;98285.67;;;-1.26;80.31
53526;BME280;40551;50.478;19.378;2023-02-03T05:16:08;98276.62;;;-1.26;80.34
53526;BME280;40551;50.478;19.378;2023-02-03T05:18:39;98273.38;;;-1.30;80.34
53526;BME280;40551;50.478;19.378;2023-02-03T05:21:10;98266.63;;;-1.32;80.36
53526;BME280;40551;50.478;19.378;2023-02-03T05:23:41;98259.13;;;-1.37;80.48
53526;BME280;40551;50.478;19.378;2023-02-03T05:26:13;98259.13;;;-1.37;80.43
53526;BME280;40551;50.478;19.378;2023-02-03T05:28:45;98255.59;;;-1.38;80.38
53526;BME280;40551;50.478;19.378;2023-02-03T05:31:15;98253.70;;;-1.37;80.42
53526;BME280;40551;50.478;19.378;2023-02-03T05:33:47;98246.86;;;-1.42;80.50
53526;BME280;40551;50.478;19.378;2023-02-03T05:36:17;98246.85;;;-1.41;80.55
53526;BME280;40551;50.478;19.378;2023-02-03T05:38:49;98245.64;;;-1.46;80.56
53526;BME280;40551;50.478;19.378;2023-02-03T05:41:19;98242.36;;;-1.44;80.49
53526;BME280;40551;50.478;19.378;2023-02-03T05:44:09;98236.39;;;-1.48;80.57
53526;BME280;40551;50.478;19.378;2023-02-03T05:46:40;98234.46;;;-1.47;80.60
53526;BME280;40551;50.478;19.378;2023-02-03T05:49:10;98231.93;;;-1.47;80.57
53526;BME280;40551;50.478;19.378;2023-02-03T05:51:42;98225.42;;;-1.52;80.69
53526;BME280;40551;50.478;19.378;2023-02-03T05:54:14;98217.08;;;-1.51;80.56
53526;BME280;40551;50.478;19.378;2023-02-03T05:56:46;98218.10;;;-1.51;80.45
53526;BME280;40551;50.478;19.378;2023-02-03T05:59:16;98211.80;;;-1.51;80.59
53526;BME280;40551;50.478;19.378;2023-02-03T06:01:48;98213.17;;;-1.56;80.68
53526;BME280;40551;50.478;19.378;2023-02-03T06:04:20;98216.01;;;-1.55;80.88
53526;BME280;40551;50.478;19.378;2023-02-03T06:06:52;98210.86;;;-1.53;80.67
53526;BME280;40551;50.478;19.378;2023-02-03T06:09:22;98205.16;;;-1.51;80.71
53526;BME280;40551;50.478;19.378;2023-02-03T06:11:53;98201.54;;;-1.54;80.78
53526;BME280;40551;50.478;19.378;2023-02-03T06:14:24;98197.22;;;-1.53;80.71
53526;BME280;40551;50.478;19.378;2023-02-03T06:16:56;98190.74;;;-1.57;80.57
53526;BME280;40551;50.478;19.378;2023-02-03T06:19:28;98191.05;;;-1.61;80.89
53526;BME280;40551;50.478;19.378;2023-02-03T06:21:58;98190.48;;;-1.60;80.94
53526;BME280;40551;50.478;19.378;2023-02-03T06:24:29;98187.83;;;-1.62;81.05
53526;BME280;40551;50.478;19.378;2023-02-03T06:26:59;98180.64;;;-1.60;81.01
53526;BME280;40551;50.478;19.378;2023-02-03T06:29:31;98180.06;;;-1.63;81.08
53526;BME280;40551;50.478;19.378;2023-02-03T06:32:01;98181.16;;;-1.61;81.11
53526;BME280;40551;50.478;19.378;2023-02-03T06:34:33;98176.00;;;-1.64;81.33
53526;BME280;40551;50.478;19.378;2023-02-03T06:37:03;98174.55;;;-1.61;81.30
53526;BME280;40551;50.478;19.378;2023-02-03T06:39:35;98174.72;;;-1.62;81.46
53526;BME280;40551;50.478;19.378;2023-02-03T06:42:05;98168.02;;;-1.60;81.32
53526;BME280;40551;50.478;19.378;2023-02-03T06:44:37;98172.70;;;-1.62;81.38
53526;BME280;40551;50.478;19.378;2023-02-03T06:47:07;98165.99;;;-1.60;81.30
53526;BME280;40551;50.478;19.378;2023-02-03T06:49:39;98162.50;;;-1.62;81.39
53526;BME280;40551;50.478;19.378;2023-02-03T06:52:09;98159.27;;;-1.57;81.63
53526;BME280;40551;50.478;19.378;2023-02-03T06:54:41;98154.71;;;-1.58;81.59
53526;BME280;40551;50.478;19.378;2023-02-03T06:57:11;98148.81;;;-1.54;81.70
53526;BME280;40551;50.478;19.378;2023-02-03T06:59:42;98147.83;;;-1.56;81.80
53526;BME280;40551;50.478;19.378;2023-02-03T07:02:12;98145.07;;;-1.49;81.74
53526;BME280;40551;50.478;19.378;2023-02-03T07:04:44;98136.89;;;-1.49;81.78
53526;BME280;40551;50.478;19.378;2023-02-03T07:07:16;98137.95;;;-1.45;81.73
53526;BME280;40551;50.478;19.378;2023-02-03T07:09:46;98137.59;;;-1.40;81.70
53526;BME280;40551;50.478;19.378;2023-02-03T07:12:18;98141.65;;;-1.40;81.75
53526;BME280;40551;50.478;19.378;2023-02-03T07:14:48;98135.58;;;-1.36;81.61
53526;BME280;40551;50.478;19.378;2023-02-03T07:17:20;98132.36;;;-1.37;81.71
53526;BME280;40551;50.478;19.378;2023-02-03T07:19:52;98126.77;;;-1.32;81.75
53526;BME280;40551;50.478;19.378;2023-02-03T07:22:22;98123.20;;;-1.27;81.62
53526;BME280;40551;50.478;19.378;2023-02-03T07:24:53;98116.41;;;-1.28;81.56
53526;BME280;40551;50.478;19.378;2023-02-03T07:27:23;98099.60;;;-1.24;81.38
53526;BME280;40551;50.478;19.378;2023-02-03T07:29:55;98098.12;;;-1.26;81.56
53526;BME280;40551;50.478;19.378;2023-02-03T07:32:27;98098.91;;;-1.24;81.56
53526;BME280;40551;50.478;19.378;2023-02-03T07:35:01;98093.25;;;-1.19;81.66
53526;BME280;40551;50.478;19.378;2023-02-03T07:37:33;98092.05;;;-1.14;81.48
53526;BME280;40551;50.478;19.378;2023-02-03T07:40:06;98087.46;;;-1.09;81.31
53526;BME280;40551;50.478;19.378;2023-02-03T07:42:38;98082.85;;;-1.04;81.15
53526;BME280;40551;50.478;19.378;2023-02-03T07:45:13;98075.75;;;-1.01;81.11
53526;BME280;40551;50.478;19.378;2023-02-03T07:47:45;98071.79;;;-0.99;80.95
53526;BME280;40551;50.478;19.378;2023-02-03T07:50:15;98066.64;;;-0.94;81.13
53526;BME280;40551;50.478;19.378;2023-02-03T07:52:47;98059.29;;;-0.93;81.15
53526;BME280;40551;50.478;19.378;2023-02-03T07:55:20;98059.77;;;-0.88;80.93
53526;BME280;40551;50.478;19.378;2023-02-03T07:57:50;98046.45;;;-0.83;80.80
53526;BME280;40551;50.478;19.378;2023-02-03T08:00:24;98046.70;;;-0.85;80.54
53526;BME280;40551;50.478;19.378;2023-02-03T08:02:56;98046.08;;;-0.82;80.61
53526;BME280;40551;50.478;19.378;2023-02-03T08:05:28;98041.58;;;-0.76;80.56
53526;BME280;40551;50.478;19.378;2023-02-03T08:08:00;98035.42;;;-0.71;80.54
53526;BME280;40551;50.478;19.378;2023-02-03T08:10:30;98032.83;;;-0.65;80.48
53526;BME280;40551;50.478;19.378;2023-02-03T08:13:01;98025.17;;;-0.65;80.43
53526;BME280;40551;50.478;19.378;2023-02-03T08:15:32;98017.21;;;-0.62;80.06
53526;BME280;40551;50.478;19.378;2023-02-03T08:18:03;98011.66;;;-0.64;80.31
53526;BME280;40551;50.478;19.378;2023-02-03T08:20:35;98008.06;;;-0.59;80.13
53526;BME280;40551;50.478;19.378;2023-02-03T08:23:06;98003.20;;;-0.58;79.74
53526;BME280;40551;50.478;19.378;2023-02-03T08:25:37;97995.44;;;-0.59;79.81
53526;BME280;40551;50.478;19.378;2023-02-03T08:28:07;97985.80;;;-0.53;80.05
53526;BME280;40551;50.478;19.378;2023-02-03T08:30:40;97978.19;;;-0.50;79.76
53526;BME280;40551;50.478;19.378;2023-02-03T08:33:11;97972.77;;;-0.42;79.96
53526;BME280;40551;50.478;19.378;2023-02-03T08:35:44;97965.30;;;-0.31;80.02
53526;BME280;40551;50.478;19.378;2023-02-03T08:38:16;97967.27;;;-0.26;80.12
53526;BME280;40551;50.478;19.378;2023-02-03T08:40:48;97963.81;;;-0.16;79.83
53526;BME280;40551;50.478;19.378;2023-02-03T08:43:18;97953.40;;;-0.12;79.26
53526;BME280;40551;50.478;19.378;2023-02-03T08:45:49;97958.19;;;-0.12;79.41
53526;BME280;40551;50.478;19.378;2023-02-03T08:48:20;97952.45;;;-0.05;79.22
53526;BME280;40551;50.478;19.378;2023-02-03T08:50:51;97947.70;;;-0.03;78.85
53526;BME280;40551;50.478;19.378;2023-02-03T08:53:21;97949.33;;;0.07;79.01
53526;BME280;40551;50.478;19.378;2023-02-03T08:55:53;97945.74;;;0.11;78.71
53526;BME280;40551;50.478;19.378;2023-02-03T08:58:25;97946.29;;;0.18;78.40
53526;BME280;40551;50.478;19.378;2023-02-03T09:01:03;97952.95;;;0.26;78.67
53526;BME280;40551;50.478;19.378;2023-02-03T09:03:36;97948.94;;;0.28;78.55
53526;BME280;40551;50.478;19.378;2023-02-03T09:06:08;97948.35;;;0.33;78.18
53526;BME280;40551;50.478;19.378;2023-02-03T09:08:42;97935.86;;;0.34;77.71
53526;BME280;40551;50.478;19.378;2023-02-03T09:11:17;97932.52;;;0.36;77.83
53526;BME280;40551;50.478;19.378;2023-02-03T09:13:48;97930.40;;;0.37;77.46
53526;BME280;40551;50.478;19.378;2023-02-03T09:16:21;97927.89;;;0.36;77.48
53526;BME280;40551;50.478;19.378;2023-02-03T09:18:53;97923.01;;;0.39;77.60
53526;BME280;40551;50.478;19.378;2023-02-03T09:21:23;97927.66;;;0.45;77.82
53526;BME280;40551;50.478;19.378;2023-02-03T09:24:14;97918.43;;;0.46;77.68
53526;BME280;40551;50.478;19.378;2023-02-03T09:26:46;97917.73;;;0.50;77.56
53526;BME280;40551;50.478;19.378;2023-02-03T09:29:18;97910.43;;;0.56;77.62
53526;BME280;40551;50.478;19.378;2023-02-03T09:31:50;97904.90;;;0.61;77.26
53526;BME280;40551;50.478;19.378;2023-02-03T09:34:23;97894.90;;;0.67;77.36
53526;BME280;40551;50.478;19.378;2023-02-03T09:36:53;97890.67;;;0.74;77.44
53526;BME280;40551;50.478;19.378;2023-02-03T09:39:25;97886.82;;;0.75;77.42
53526;BME280;40551;50.478;19.378;2023-02-03T09:42:02;97876.14;;;0.81;77.46
53526;BME280;40551;50.478;19.378;2023-02-03T09:44:42;97864.50;;;0.82;77.68
53526;BME280;40551;50.478;19.378;2023-02-03T09:47:19;97857.86;;;0.92;77.63
53526;BME280;40551;50.478;19.378;2023-02-03T09:49:56;97848.70;;;0.97;77.73
53526;BME280;40551;50.478;19.378;2023-02-03T09:52:31;97841.85;;;0.95;77.60
53526;BME280;40551;50.478;19.378;2023-02-03T09:55:19;97829.56;;;0.91;77.56
53526;BME280;40551;50.478;19.378;2023-02-03T09:58:01;97818.27;;;0.85;77.68
53526;BME280;40551;50.478;19.378;2023-02-03T10:00:38;97811.00;;;0.76;77.94
53526;BME280;40551;50.478;19.378;2023-02-03T10:03:21;97800.10;;;0.72;78.50
53526;BME280;40551;50.478;19.378;2023-02-03T10:06:13;97789.30;;;0.73;78.88
53526;BME280;40551;50.478;19.378;2023-02-03T10:08:57;97772.72;;;0.77;79.55
53526;BME280;40551;50.478;19.378;2023-02-03T10:11:39;97764.15;;;0.78;79.40
53526;BME280;40551;50.478;19.378;2023-02-03T10:14:24;97760.84;;;0.75;79.79
53526;BME280;40551;50.478;19.378;2023-02-03T10:17:08;97751.63;;;0.72;79.77
53526;BME280;40551;50.478;19.378;2023-02-03T10:19:49;97742.77;;;0.68;80.24
53526;BME280;40551;50.478;19.378;2023-02-03T10:22:23;97732.98;;;0.66;80.51
53526;BME280;40551;50.478;19.378;2023-02-03T10:24:59;97723.75;;;0.66;80.97
53526;BME280;40551;50.478;19.378;2023-02-03T10:27:35;97706.79;;;0.64;80.93
53526;BME280;40551;50.478;19.378;2023-02-03T10:30:16;97696.15;;;0.65;81.40
53526;BME280;40551;50.478;19.378;2023-02-03T10:32:52;97691.08;;;0.68;81.59
53526;BME280;40551;50.478;19.378;2023-02-03T10:35:34;97681.68;;;0.68;81.89
53526;BME280;40551;50.478;19.378;2023-02-03T10:38:16;97671.08;;;0.69;81.94
53526;BME280;40551;50.478;19.378;2023-02-03T10:40:50;97661.25;;;0.67;81.88
53526;BME280;40551;50.478;19.378;2023-02-03T10:43:22;97654.23;;;0.67;82.27
53526;BME280;40551;50.478;19.378;2023-02-03T10:46:11;97640.94;;;0.67;82.21
53526;BME280;40551;50.478;19.378;2023-02-03T10:48:43;97631.33;;;0.64;82.54
53526;BME280;40551;50.478;19.378;2023-02-03T10:51:20;97623.15;;;0.64;82.57
53526;BME280;40551;50.478;19.378;2023-02-03T10:53:53;97617.14;;;0.61;82.74
53526;BME280;40551;50.478;19.378;2023-02-03T10:56:28;97603.62;;;0.62;82.79
53526;BME280;40551;50.478;19.378;2023-02-03T10:59:01;97595.81;;;0.65;83.05
53526;BME280;40551;50.478;19.378;2023-02-03T11:01:41;97591.44;;;0.67;83.16
53526;BME280;40551;50.478;19.378;2023-02-03T11:04:25;97582.85;;;0.64;83.16
53526;BME280;40551;50.478;19.378;2023-02-03T11:06:58;97579.83;;;0.60;83.34
53526;BME280;40551;50.478;19.378;2023-02-03T11:09:35;97569.77;;;0.60;83.47
53526;BME280;40551;50.478;19.378;2023-02-03T11:12:12;97559.16;;;0.57;83.54
53526;BME280;40551;50.478;19.378;2023-02-03T11:14:46;97547.56;;;0.54;83.74
53526;BME280;40551;50.478;19.378;2023-02-03T11:17:19;97542.84;;;0.53;83.78
53526;BME280;40551;50.478;19.378;2023-02-03T11:19:54;97538.44;;;0.52;84.04
53526;BME280;40551;50.478;19.378;2023-02-03T11:22:31;97526.41;;;0.51;83.88
53526;BME280;40551;50.478;19.378;2023-02-03T11:25:14;97510.97;;;0.49;84.18
53526;BME280;40551;50.478;19.378;2023-02-03T11:27:47;97496.96;;;0.50;84.35
53526;BME280;40551;50.478;19.378;2023-02-03T11:30:25;97493.48;;;0.51;84.30
53526;BME280;40551;50.478;19.378;2023-02-03T11:33:02;97485.46;;;0.54;84.49
53526;BME280;40551;50.478;19.378;2023-02-03T11:35:54;97473.66;;;0.58;84.42
53526;BME280;40551;50.478;19.378;2023-02-03T11:38:32;97463.30;;;0.57;84.51
53526;BME280;40551;50.478;19.378;2023-02-03T11:41:08;97455.14;;;0.53;84.69
53526;BME280;40551;50.478;19.378;2023-02-03T11:43:45;97444.97;;;0.55;85.22
53526;BME280;40551;50.478;19.378;2023-02-03T11:46:16;97432.23;;;0.60;85.37
53526;BME280;40551;50.478;19.378;2023-02-03T11:48:59;97419.65;;;0.62;85.28
53526;BME280;40551;50.478;19.378;2023-02-03T11:51:40;97411.31;;;0.62;85.11
53526;BME280;40551;50.478;19.378;2023-02-03T11:54:23;97404.34;;;0.58;85.07
53526;BME280;40551;50.478;19.378;2023-02-03T11:57:11;97397.71;;;0.58;85.04
53526;BME280;40551;50.478;19.378;2023-02-03T11:59:55;97389.16;;;0.58;85.28
53526;BME280;40551;50.478;19.378;2023-02-03T12:02:43;97382.58;;;0.60;85.31
53526;BME280;40551;50.478;19.378;2023-02-03T12:05:34;97378.92;;;0.61;85.24
53526;BME280;40551;50.478;19.378;2023-02-03T12:08:21;97361.23;;;0.57;85.26
53526;BME280;40551;50.478;19.378;2023-02-03T12:11:06;97356.54;;;0.53;85.50
53526;BME280;40551;50.478;19.378;2023-02-03T12:13:58;97343.58;;;0.50;85.71
53526;BME280;40551;50.478;19.378;2023-02-03T12:16:48;97337.70;;;0.48;85.71
53526;BME280;40551;50.478;19.378;2023-02-03T12:19:31;97326.89;;;0.46;85.92
53526;BME280;40551;50.478;19.378;2023-02-03T12:22:17;97318.05;;;0.45;85.96
53526;BME280;40551;50.478;19.378;2023-02-03T12:24:58;97308.84;;;0.42;85.86
53526;BME280;40551;50.478;19.378;2023-02-03T12:27:37;97296.45;;;0.41;86.16
53526;BME280;40551;50.478;19.378;2023-02-03T12:30:16;97291.81;;;0.41;86.30
53526;BME280;40551;50.478;19.378;2023-02-03T12:32:52;97286.13;;;0.39;86.47
53526;BME280;40551;50.478;19.378;2023-02-03T12:35:31;97276.38;;;0.37;86.54
53526;BME280;40551;50.478;19.378;2023-02-03T12:38:11;97268.21;;;0.36;86.71
53526;BME280;40551;50.478;19.378;2023-02-03T12:40:48;97262.63;;;0.36;86.80
53526;BME280;40551;50.478;19.378;2023-02-03T12:43:26;97257.09;;;0.36;86.90
53526;BME280;40551;50.478;19.378;2023-02-03T12:46:03;97249.80;;;0.36;87.20
53526;BME280;40551;50.478;19.378;2023-02-03T12:48:45;97240.80;;;0.36;87.11
53526;BME280;40551;50.478;19.378;2023-02-03T12:51:28;97238.86;;;0.36;87.17
53526;BME280;40551;50.478;19.378;2023-02-03T12:54:05;97234.38;;;0.37;87.26
53526;BME280;40551;50.478;19.378;2023-02-03T12:56:42;97226.09;;;0.36;87.43
53526;BME280;40551;50.478;19.378;2023-02-03T12:59:21;97216.08;;;0.36;87.58
53526;BME280;40551;50.478;19.378;2023-02-03T13:01:57;97207.03;;;0.36;87.80
53526;BME280;40551;50.478;19.378;2023-02-03T13:04:35;97197.96;;;0.36;87.68
53526;BME280;40551;50.478;19.378;2023-02-03T13:07:14;97192.98;;;0.36;87.76
53526;BME280;40551;50.478;19.378;2023-02-03T13:09:53;97187.38;;;0.36;87.95
53526;BME280;40551;50.478;19.378;2023-02-03T13:12:31;97180.60;;;0.38;88.21
53526;BME280;40551;50.478;19.378;2023-02-03T13:15:16;97171.73;;;0.38;88.13
53526;BME280;40551;50.478;19.378;2023-02-03T13:17:53;97159.61;;;0.38;88.13
53526;BME280;40551;50.478;19.378;2023-02-03T13:20:27;97151.89;;;0.39;88.25
53526;BME280;40551;50.478;19.378;2023-02-03T13:23:01;97140.80;;;0.42;88.33
53526;BME280;40551;50.478;19.378;2023-02-03T13:25:47;97134.71;;;0.44;88.42
53526;BME280;40551;50.478;19.378;2023-02-03T13:28:31;97127.49;;;0.45;88.58
53526;BME280;40551;50.478;19.378;2023-02-03T13:31:16;97121.45;;;0.46;88.71
53526;BME280;40551;50.478;19.378;2023-02-03T13:34:05;97112.04;;;0.47;88.82
53526;BME280;40551;50.478;19.378;2023-02-03T13:37:19;97095.89;;;0.46;88.88
53526;BME280;40551;50.478;19.378;2023-02-03T13:40:03;97080.99;;;0.44;89.21